• Join FlightAware (Why Join?)
  • Login
  • US Flag 
05:49PM EDT


 

Airport Tracker/Info


-or-


 

Live Flight TrackerFlight Track Log ✈ WAV261 ✈ 24-Jul-2013 ✈ PFYU - PAFA / FAI

Flight Track Log - Related Links

Times and Time Zones

All times are in EDT time to prevent confusion due to time zone crossing. See the WAV261 flight status page for this flight to view local times or setup timezone preferences in your user account.

Time Position Orientation Groundspeed Altitude Reporting Facility
EDT Latitude Longitude Course Direction KTS MPH feet Rate Location/Type
10:51PM 66.4333 -145.4833 211° Southwest 110 127 6,100  Level Anchorage Center
10:52PM 66.4000 -145.5333 211° Southwest 130 150 7,000 840 Climbing Anchorage Center
10:53PM 66.3833 -145.6000 238° Southwest 130 150 7,800 660 Climbing Anchorage Center
10:54PM 66.3500 -145.6667 219° Southwest 150 173 8,400 600 Climbing Anchorage Center
10:55PM 66.3167 -145.7167 211° Southwest 150 173 9,100 600 Climbing Anchorage Center
10:56PM 66.2833 -145.7833 219° Southwest 160 184 9,700 420 Climbing Anchorage Center
10:57PM 66.2333 -145.8500 208° Southwest 170 196 10,000 120 Climbing Anchorage Center
10:58PM 66.2000 -145.9167 219° Southwest 180 207 10,000  Level Anchorage Center
10:59PM 66.1500 -145.9667 202° Southwest 180 207 10,000  Level Anchorage Center
11:00PM 66.1167 -146.0333 219° Southwest 170 196 10,000  Level Anchorage Center
11:01PM 66.0667 -146.1000 208° Southwest 180 207 10,000  Level Anchorage Center
11:02PM 66.0333 -146.1667 219° Southwest 170 196 10,000  Level Anchorage Center
11:03PM 65.9833 -146.2167 202° Southwest 180 207 10,000  Level Anchorage Center
11:04PM 65.9333 -146.2833 209° Southwest 190 219 10,000  Level Anchorage Center
11:05PM 65.9000 -146.3500 219° Southwest 190 219 10,000  Level Anchorage Center
11:06PM 65.8500 -146.4167 209° Southwest 190 219 10,000  Level Anchorage Center
11:07PM 65.8167 -146.4833 219° Southwest 170 196 10,000  Level Anchorage Center
11:08PM 65.7667 -146.5333 202° Southwest 170 196 10,000  Level Anchorage Center
11:09PM 65.7333 -146.6000 219° Southwest 180 207 10,000  Level Anchorage Center
11:10PM 65.6833 -146.6500 202° Southwest 180 207 10,000  Level Anchorage Center
11:11PM 65.6333 -146.7167 209° Southwest 170 196 10,000  Level Anchorage Center
11:12PM 65.6000 -146.7833 220° Southwest 160 184 10,000  Level Anchorage Center
11:13PM 65.5500 -146.8333 202° Southwest 170 196 10,000  Level Anchorage Center
11:14PM 65.5167 -146.9000 220° Southwest 180 207 10,000 -180 Level Anchorage Center
11:15PM 65.4667 -146.9500 203° Southwest 170 196 9,700 -300 Descending Anchorage Center
11:17PM 65.4179 -147.0112 208° Southwest  Level FlightAware Approximate
11:24PM 65.1615 -147.3510 211° Southwest  Level FlightAware Approximate
11:25PM 65.1255 -147.4014 210° Southwest  Level FlightAware Approximate
11:26PM 65.0894 -147.4517 210° Southwest  Level FlightAware Approximate
11:27PM 65.0534 -147.5019 211° Southwest  Level FlightAware Approximate
11:28PM 65.0173 -147.5521 210° Southwest  Level FlightAware Approximate
11:29PM 64.9813 -147.6022 210° Southwest  Level FlightAware Approximate
11:30PM 64.9452 -147.6522 210° Southwest  Level FlightAware Approximate
11:31PM 64.9091 -147.7020 210° Southwest  Level FlightAware Approximate
11:32PM 64.8730 -147.7517 210° Southwest  Level FlightAware Approximate
11:33PM 64.8368 -147.8009 210° Southwest  Level FlightAware Approximate
11:34PM 64.8151 -147.8564 210° Southwest  Level Estimated
11:35PM 64.8151 -147.8564 210° Southwest  Level Estimated
11:36PM 64.8151 -147.8564 210° Southwest  Level Estimated
11:37PM 64.8151 -147.8564 210° Southwest  Level Estimated
11:38PM 64.8151 -147.8564 210° Southwest  Level Estimated
11:39PM 64.8151 -147.8564 210° Southwest  Level Estimated
11:40PM 64.8151 -147.8564 210° Southwest  Level Estimated
11:41PM 64.8151 -147.8564 210° Southwest  Level Estimated
11:42PM 64.8151 -147.8564 210° Southwest  Level Estimated
11:43PM 64.8151 -147.8564 210° Southwest  Level Estimated
11:44PM 64.8151 -147.8564 210° Southwest  Level Estimated
11:45PM 64.8151 -147.8564 210° Southwest  Level Estimated
11:46PM 64.8151 -147.8564 210° Southwest  Level Estimated
11:47PM 64.8151 -147.8564 210° Southwest  Level Estimated
11:48PM 64.8151 -147.8564 210° Southwest  Level Estimated
11:49PM 64.8151 -147.8564 210° Southwest  Level Estimated
11:50PM 64.8151 -147.8564 210° Southwest  Level Estimated
11:51PM 64.8151 -147.8564 210° Southwest  Level Estimated
11:52PM 64.8151 -147.8564 210° Southwest  Level Estimated
11:53PM 64.8151 -147.8564 210° Southwest  Level Estimated
11:54PM 64.8151 -147.8564 210° Southwest  Level Estimated